sensor_id;sensor_type;location;lat;lon;timestamp;temperature;humidity
11140;DHT22;5624;49.388;11.350;2024-02-21T00:00:54;4.50;98.90
11140;DHT22;5624;49.388;11.350;2024-02-21T00:03:20;4.40;98.90
11140;DHT22;5624;49.388;11.350;2024-02-21T00:05:45;4.40;99.30
11140;DHT22;5624;49.388;11.350;2024-02-21T00:08:11;4.40;99.40
11140;DHT22;5624;49.388;11.350;2024-02-21T00:10:36;4.40;99.70
11140;DHT22;5624;49.388;11.350;2024-02-21T00:13:02;4.30;99.90
11140;DHT22;5624;49.388;11.350;2024-02-21T00:15:28;4.40;99.70
11140;DHT22;5624;49.388;11.350;2024-02-21T00:17:54;4.40;99.70
11140;DHT22;5624;49.388;11.350;2024-02-21T00:20:19;4.40;99.90
11140;DHT22;5624;49.388;11.350;2024-02-21T00:22:45;4.50;99.70
11140;DHT22;5624;49.388;11.350;2024-02-21T00:25:11;4.40;99.90
11140;DHT22;5624;49.388;11.350;2024-02-21T00:27:37;4.50;99.90
11140;DHT22;5624;49.388;11.350;2024-02-21T00:30:03;4.40;99.90
11140;DHT22;5624;49.388;11.350;2024-02-21T00:32:29;4.50;99.80
11140;DHT22;5624;49.388;11.350;2024-02-21T00:34:54;4.50;99.90
11140;DHT22;5624;49.388;11.350;2024-02-21T00:37:20;4.60;99.90
11140;DHT22;5624;49.388;11.350;2024-02-21T00:39:45;4.60;99.80
11140;DHT22;5624;49.388;11.350;2024-02-21T00:42:11;4.60;99.90
11140;DHT22;5624;49.388;11.350;2024-02-21T00:44:36;4.60;99.40
11140;DHT22;5624;49.388;11.350;2024-02-21T00:47:02;4.60;99.40
11140;DHT22;5624;49.388;11.350;2024-02-21T00:49:27;4.60;99.70
11140;DHT22;5624;49.388;11.350;2024-02-21T00:51:53;4.70;99.50
11140;DHT22;5624;49.388;11.350;2024-02-21T00:54:18;4.70;99.40
11140;DHT22;5624;49.388;11.350;2024-02-21T00:56:44;4.70;99.50
11140;DHT22;5624;49.388;11.350;2024-02-21T00:59:09;4.70;99.70
11140;DHT22;5624;49.388;11.350;2024-02-21T01:01:35;4.70;99.50
11140;DHT22;5624;49.388;11.350;2024-02-21T01:04:01;4.70;99.40
11140;DHT22;5624;49.388;11.350;2024-02-21T01:06:26;4.70;99.50
11140;DHT22;5624;49.388;11.350;2024-02-21T01:08:52;4.70;99.90
11140;DHT22;5624;49.388;11.350;2024-02-21T01:11:17;4.70;99.40
11140;DHT22;5624;49.388;11.350;2024-02-21T01:13:43;4.80;99.20
11140;DHT22;5624;49.388;11.350;2024-02-21T01:16:09;4.80;99.10
11140;DHT22;5624;49.388;11.350;2024-02-21T01:18:37;4.70;99.50
11140;DHT22;5624;49.388;11.350;2024-02-21T01:21:03;4.70;99.70
11140;DHT22;5624;49.388;11.350;2024-02-21T01:23:34;4.80;99.60
11140;DHT22;5624;49.388;11.350;2024-02-21T01:26:00;4.80;99.50
11140;DHT22;5624;49.388;11.350;2024-02-21T01:28:26;4.90;99.00
11140;DHT22;5624;49.388;11.350;2024-02-21T01:30:51;4.80;99.30
11140;DHT22;5624;49.388;11.350;2024-02-21T01:33:17;4.90;99.20
11140;DHT22;5624;49.388;11.350;2024-02-21T01:35:42;4.90;99.30
11140;DHT22;5624;49.388;11.350;2024-02-21T01:38:08;4.90;99.30
11140;DHT22;5624;49.388;11.350;2024-02-21T01:40:33;4.90;99.10
11140;DHT22;5624;49.388;11.350;2024-02-21T01:42:59;4.80;99.30
11140;DHT22;5624;49.388;11.350;2024-02-21T01:45:24;4.80;99.60
11140;DHT22;5624;49.388;11.350;2024-02-21T01:47:50;4.90;99.30
11140;DHT22;5624;49.388;11.350;2024-02-21T01:50:17;4.90;99.30
11140;DHT22;5624;49.388;11.350;2024-02-21T01:52:43;4.90;99.10
11140;DHT22;5624;49.388;11.350;2024-02-21T01:55:11;4.90;99.10
11140;DHT22;5624;49.388;11.350;2024-02-21T01:57:39;5.00;99.10
11140;DHT22;5624;49.388;11.350;2024-02-21T02:00:06;5.00;98.90
11140;DHT22;5624;49.388;11.350;2024-02-21T02:02:32;5.00;99.10
11140;DHT22;5624;49.388;11.350;2024-02-21T02:04:57;5.00;98.90
11140;DHT22;5624;49.388;11.350;2024-02-21T02:07:23;5.00;98.90
11140;DHT22;5624;49.388;11.350;2024-02-21T02:09:49;5.00;99.10
11140;DHT22;5624;49.388;11.350;2024-02-21T02:12:15;5.00;99.40
11140;DHT22;5624;49.388;11.350;2024-02-21T02:14:40;5.00;99.40
11140;DHT22;5624;49.388;11.350;2024-02-21T02:17:06;5.00;99.40
11140;DHT22;5624;49.388;11.350;2024-02-21T02:19:31;5.00;99.40
11140;DHT22;5624;49.388;11.350;2024-02-21T02:22:08;5.00;99.20
11140;DHT22;5624;49.388;11.350;2024-02-21T02:24:34;5.00;99.50
11140;DHT22;5624;49.388;11.350;2024-02-21T02:27:00;4.90;99.90
11140;DHT22;5624;49.388;11.350;2024-02-21T02:29:26;4.90;99.90
11140;DHT22;5624;49.388;11.350;2024-02-21T02:31:51;4.90;99.90
11140;DHT22;5624;49.388;11.350;2024-02-21T02:34:17;4.90;99.90
11140;DHT22;5624;49.388;11.350;2024-02-21T02:36:42;4.90;99.90
11140;DHT22;5624;49.388;11.350;2024-02-21T02:39:08;5.00;99.90
11140;DHT22;5624;49.388;11.350;2024-02-21T02:41:36;4.90;99.90
11140;DHT22;5624;49.388;11.350;2024-02-21T02:44:01;5.00;99.90
11140;DHT22;5624;49.388;11.350;2024-02-21T02:46:27;4.90;99.90
11140;DHT22;5624;49.388;11.350;2024-02-21T02:48:52;5.00;99.90
11140;DHT22;5624;49.388;11.350;2024-02-21T02:51:18;5.00;99.90
11140;DHT22;5624;49.388;11.350;2024-02-21T02:53:43;4.90;99.90
11140;DHT22;5624;49.388;11.350;2024-02-21T02:56:17;4.90;99.90
11140;DHT22;5624;49.388;11.350;2024-02-21T02:58:43;5.00;99.90
11140;DHT22;5624;49.388;11.350;2024-02-21T03:01:09;4.90;99.90
11140;DHT22;5624;49.388;11.350;2024-02-21T03:03:35;5.00;99.90
11140;DHT22;5624;49.388;11.350;2024-02-21T03:06:00;5.00;99.90
11140;DHT22;5624;49.388;11.350;2024-02-21T03:08:26;5.00;99.90
11140;DHT22;5624;49.388;11.350;2024-02-21T03:10:51;5.00;99.90
11140;DHT22;5624;49.388;11.350;2024-02-21T03:13:17;5.00;99.90
11140;DHT22;5624;49.388;11.350;2024-02-21T03:15:42;4.90;99.90
11140;DHT22;5624;49.388;11.350;2024-02-21T03:18:08;4.90;99.90
11140;DHT22;5624;49.388;11.350;2024-02-21T03:20:33;4.90;99.90
11140;DHT22;5624;49.388;11.350;2024-02-21T03:22:59;4.90;99.90
11140;DHT22;5624;49.388;11.350;2024-02-21T03:25:24;4.80;99.90
11140;DHT22;5624;49.388;11.350;2024-02-21T03:27:50;4.90;99.90
11140;DHT22;5624;49.388;11.350;2024-02-21T03:30:17;4.90;99.90
11140;DHT22;5624;49.388;11.350;2024-02-21T03:32:42;4.90;99.90
11140;DHT22;5624;49.388;11.350;2024-02-21T03:35:08;4.80;99.90
11140;DHT22;5624;49.388;11.350;2024-02-21T03:37:33;4.80;99.90
11140;DHT22;5624;49.388;11.350;2024-02-21T03:39:59;4.80;99.90
11140;DHT22;5624;49.388;11.350;2024-02-21T03:42:24;4.80;99.90
11140;DHT22;5624;49.388;11.350;2024-02-21T03:44:50;4.80;99.90
11140;DHT22;5624;49.388;11.350;2024-02-21T03:47:16;4.80;99.90
11140;DHT22;5624;49.388;11.350;2024-02-21T03:49:41;4.80;99.90
11140;DHT22;5624;49.388;11.350;2024-02-21T03:52:07;4.70;99.90
11140;DHT22;5624;49.388;11.350;2024-02-21T03:54:33;4.60;99.90
11140;DHT22;5624;49.388;11.350;2024-02-21T03:56:59;4.60;99.90
11140;DHT22;5624;49.388;11.350;2024-02-21T03:59:24;4.50;99.90
11140;DHT22;5624;49.388;11.350;2024-02-21T04:01:53;4.50;99.90
11140;DHT22;5624;49.388;11.350;2024-02-21T04:04:18;4.50;99.90
11140;DHT22;5624;49.388;11.350;2024-02-21T04:06:50;4.50;99.90
11140;DHT22;5624;49.388;11.350;2024-02-21T04:09:16;4.50;99.90
11140;DHT22;5624;49.388;11.350;2024-02-21T04:11:41;4.60;99.90
11140;DHT22;5624;49.388;11.350;2024-02-21T04:14:07;4.60;99.90
11140;DHT22;5624;49.388;11.350;2024-02-21T04:16:33;4.60;99.90
11140;DHT22;5624;49.388;11.350;2024-02-21T04:18:58;4.60;99.90
11140;DHT22;5624;49.388;11.350;2024-02-21T04:21:24;4.60;99.90
11140;DHT22;5624;49.388;11.350;2024-02-21T04:23:50;4.60;99.90
11140;DHT22;5624;49.388;11.350;2024-02-21T04:26:15;4.70;99.90
11140;DHT22;5624;49.388;11.350;2024-02-21T04:28:41;4.70;99.90
11140;DHT22;5624;49.388;11.350;2024-02-21T04:31:06;4.70;99.90
11140;DHT22;5624;49.388;11.350;2024-02-21T04:33:32;4.70;99.90
11140;DHT22;5624;49.388;11.350;2024-02-21T04:35:57;4.70;99.90
11140;DHT22;5624;49.388;11.350;2024-02-21T04:38:24;4.70;99.90
11140;DHT22;5624;49.388;11.350;2024-02-21T04:40:49;4.80;99.90
11140;DHT22;5624;49.388;11.350;2024-02-21T04:43:15;4.80;99.90
11140;DHT22;5624;49.388;11.350;2024-02-21T04:45:40;4.80;99.90
11140;DHT22;5624;49.388;11.350;2024-02-21T04:48:06;4.90;99.90
11140;DHT22;5624;49.388;11.350;2024-02-21T04:50:31;4.90;99.90
11140;DHT22;5624;49.388;11.350;2024-02-21T04:52:57;4.90;99.90
11140;DHT22;5624;49.388;11.350;2024-02-21T04:55:22;5.00;99.90
11140;DHT22;5624;49.388;11.350;2024-02-21T04:57:48;4.90;99.90
11140;DHT22;5624;49.388;11.350;2024-02-21T05:00:14;4.90;99.90
11140;DHT22;5624;49.388;11.350;2024-02-21T05:02:39;4.90;99.90
11140;DHT22;5624;49.388;11.350;2024-02-21T05:05:05;5.00;99.90
11140;DHT22;5624;49.388;11.350;2024-02-21T05:07:30;5.00;99.90
11140;DHT22;5624;49.388;11.350;2024-02-21T05:09:56;5.00;99.90
11140;DHT22;5624;49.388;11.350;2024-02-21T05:12:21;5.00;99.90
11140;DHT22;5624;49.388;11.350;2024-02-21T05:14:47;4.90;99.90
11140;DHT22;5624;49.388;11.350;2024-02-21T05:17:13;4.90;99.90
11140;DHT22;5624;49.388;11.350;2024-02-21T05:19:38;5.00;99.90
11140;DHT22;5624;49.388;11.350;2024-02-21T05:22:04;4.90;99.90
11140;DHT22;5624;49.388;11.350;2024-02-21T05:24:29;4.90;99.90
11140;DHT22;5624;49.388;11.350;2024-02-21T05:26:55;4.90;99.90
11140;DHT22;5624;49.388;11.350;2024-02-21T05:29:20;4.90;99.90
11140;DHT22;5624;49.388;11.350;2024-02-21T05:34:18;4.80;99.90
11140;DHT22;5624;49.388;11.350;2024-02-21T05:36:44;4.90;99.90
11140;DHT22;5624;49.388;11.350;2024-02-21T05:39:10;4.90;99.90
11140;DHT22;5624;49.388;11.350;2024-02-21T05:41:36;4.90;99.90
11140;DHT22;5624;49.388;11.350;2024-02-21T05:44:01;4.90;99.90
11140;DHT22;5624;49.388;11.350;2024-02-21T05:46:27;4.90;99.90
11140;DHT22;5624;49.388;11.350;2024-02-21T05:48:52;4.90;99.90
11140;DHT22;5624;49.388;11.350;2024-02-21T05:51:18;4.80;99.90
11140;DHT22;5624;49.388;11.350;2024-02-21T05:53:43;4.80;99.90
11140;DHT22;5624;49.388;11.350;2024-02-21T05:56:13;4.80;99.90
11140;DHT22;5624;49.388;11.350;2024-02-21T05:58:39;4.80;99.90
11140;DHT22;5624;49.388;11.350;2024-02-21T06:01:04;4.70;99.90
11140;DHT22;5624;49.388;11.350;2024-02-21T06:03:32;4.60;99.90
11140;DHT22;5624;49.388;11.350;2024-02-21T06:05:58;4.60;99.90
11140;DHT22;5624;49.388;11.350;2024-02-21T06:08:23;4.50;99.90
11140;DHT22;5624;49.388;11.350;2024-02-21T06:10:49;4.40;99.90
11140;DHT22;5624;49.388;11.350;2024-02-21T06:13:17;4.40;99.90
11140;DHT22;5624;49.388;11.350;2024-02-21T06:15:42;4.30;99.90
11140;DHT22;5624;49.388;11.350;2024-02-21T06:18:08;4.20;99.90
11140;DHT22;5624;49.388;11.350;2024-02-21T06:20:33;4.20;99.90
11140;DHT22;5624;49.388;11.350;2024-02-21T06:23:01;4.30;99.90
11140;DHT22;5624;49.388;11.350;2024-02-21T06:25:27;4.20;99.90
11140;DHT22;5624;49.388;11.350;2024-02-21T06:27:52;4.20;99.90
11140;DHT22;5624;49.388;11.350;2024-02-21T06:30:18;4.20;99.90
11140;DHT22;5624;49.388;11.350;2024-02-21T06:32:43;4.20;99.90
11140;DHT22;5624;49.388;11.350;2024-02-21T06:35:09;4.20;99.90
11140;DHT22;5624;49.388;11.350;2024-02-21T06:37:34;4.20;99.90
11140;DHT22;5624;49.388;11.350;2024-02-21T06:40:00;4.30;99.90
11140;DHT22;5624;49.388;11.350;2024-02-21T06:42:25;4.40;99.90
11140;DHT22;5624;49.388;11.350;2024-02-21T06:44:51;4.40;99.90
11140;DHT22;5624;49.388;11.350;2024-02-21T06:47:17;4.40;99.90
11140;DHT22;5624;49.388;11.350;2024-02-21T06:49:43;4.40;99.90
11140;DHT22;5624;49.388;11.350;2024-02-21T06:52:08;4.50;99.90
11140;DHT22;5624;49.388;11.350;2024-02-21T06:54:34;4.60;99.90
11140;DHT22;5624;49.388;11.350;2024-02-21T06:56:59;4.80;99.90
11140;DHT22;5624;49.388;11.350;2024-02-21T06:59:25;4.90;99.90
11140;DHT22;5624;49.388;11.350;2024-02-21T07:01:54;5.00;99.90
11140;DHT22;5624;49.388;11.350;2024-02-21T07:04:22;5.10;99.90
11140;DHT22;5624;49.388;11.350;2024-02-21T07:06:48;5.20;99.90
11140;DHT22;5624;49.388;11.350;2024-02-21T07:09:13;5.20;99.90
11140;DHT22;5624;49.388;11.350;2024-02-21T07:11:39;5.20;99.90
11140;DHT22;5624;49.388;11.350;2024-02-21T07:14:04;5.30;99.90
11140;DHT22;5624;49.388;11.350;2024-02-21T07:16:30;5.40;99.90
11140;DHT22;5624;49.388;11.350;2024-02-21T07:18:58;5.40;99.90
11140;DHT22;5624;49.388;11.350;2024-02-21T07:21:23;5.50;99.90
11140;DHT22;5624;49.388;11.350;2024-02-21T07:23:49;5.50;99.90
11140;DHT22;5624;49.388;11.350;2024-02-21T07:26:14;5.50;99.90
11140;DHT22;5624;49.388;11.350;2024-02-21T07:28:40;5.50;99.90
11140;DHT22;5624;49.388;11.350;2024-02-21T07:31:05;5.50;99.90
11140;DHT22;5624;49.388;11.350;2024-02-21T07:33:31;5.40;99.90
11140;DHT22;5624;49.388;11.350;2024-02-21T07:35:56;5.60;99.90
11140;DHT22;5624;49.388;11.350;2024-02-21T07:38:22;5.70;99.90
11140;DHT22;5624;49.388;11.350;2024-02-21T07:40:47;6.00;99.90
11140;DHT22;5624;49.388;11.350;2024-02-21T07:43:13;6.40;99.70
11140;DHT22;5624;49.388;11.350;2024-02-21T07:45:39;6.90;95.40
11140;DHT22;5624;49.388;11.350;2024-02-21T07:48:06;6.90;95.60
11140;DHT22;5624;49.388;11.350;2024-02-21T07:50:31;7.30;94.50
11140;DHT22;5624;49.388;11.350;2024-02-21T07:52:57;8.00;91.10
11140;DHT22;5624;49.388;11.350;2024-02-21T07:55:23;8.50;86.90
11140;DHT22;5624;49.388;11.350;2024-02-21T07:57:48;8.90;85.20
11140;DHT22;5624;49.388;11.350;2024-02-21T08:00:15;9.40;82.90
11140;DHT22;5624;49.388;11.350;2024-02-21T08:02:45;9.90;80.80
11140;DHT22;5624;49.388;11.350;2024-02-21T08:05:11;10.00;76.00
11140;DHT22;5624;49.388;11.350;2024-02-21T08:07:38;9.90;76.60
11140;DHT22;5624;49.388;11.350;2024-02-21T08:10:04;10.30;76.00
11140;DHT22;5624;49.388;11.350;2024-02-21T08:12:29;10.60;73.60
11140;DHT22;5624;49.388;11.350;2024-02-21T08:14:55;10.40;74.00
11140;DHT22;5624;49.388;11.350;2024-02-21T08:17:20;10.20;73.80
11140;DHT22;5624;49.388;11.350;2024-02-21T08:19:46;9.90;74.40
11140;DHT22;5624;49.388;11.350;2024-02-21T08:22:13;10.00;76.40
11140;DHT22;5624;49.388;11.350;2024-02-21T08:24:39;10.20;74.30
11140;DHT22;5624;49.388;11.350;2024-02-21T08:27:04;10.10;73.90
11140;DHT22;5624;49.388;11.350;2024-02-21T08:29:30;10.30;73.90
11140;DHT22;5624;49.388;11.350;2024-02-21T08:31:57;10.40;72.60
11140;DHT22;5624;49.388;11.350;2024-02-21T08:34:22;11.20;71.50
11140;DHT22;5624;49.388;11.350;2024-02-21T08:36:48;11.50;69.80
11140;DHT22;5624;49.388;11.350;2024-02-21T08:39:13;11.90;67.20
11140;DHT22;5624;49.388;11.350;2024-02-21T08:41:42;11.90;64.30
11140;DHT22;5624;49.388;11.350;2024-02-21T08:44:08;12.10;66.50
11140;DHT22;5624;49.388;11.350;2024-02-21T08:46:33;12.20;64.10
11140;DHT22;5624;49.388;11.350;2024-02-21T08:48:59;12.40;64.40
11140;DHT22;5624;49.388;11.350;2024-02-21T08:51:25;12.60;63.40
11140;DHT22;5624;49.388;11.350;2024-02-21T08:53:50;12.70;61.30
11140;DHT22;5624;49.388;11.350;2024-02-21T08:56:17;12.50;60.90
11140;DHT22;5624;49.388;11.350;2024-02-21T08:58:43;12.20;62.40
11140;DHT22;5624;49.388;11.350;2024-02-21T09:01:09;12.20;62.80
11140;DHT22;5624;49.388;11.350;2024-02-21T09:03:36;12.30;62.60
11140;DHT22;5624;49.388;11.350;2024-02-21T09:06:04;12.50;61.90
11140;DHT22;5624;49.388;11.350;2024-02-21T09:08:29;12.80;59.80
11140;DHT22;5624;49.388;11.350;2024-02-21T09:10:55;12.80;61.00
11140;DHT22;5624;49.388;11.350;2024-02-21T09:13:21;13.10;60.60
11140;DHT22;5624;49.388;11.350;2024-02-21T09:15:47;13.10;59.80
11140;DHT22;5624;49.388;11.350;2024-02-21T09:18:14;13.10;60.40
11140;DHT22;5624;49.388;11.350;2024-02-21T09:20:40;13.50;58.30
11140;DHT22;5624;49.388;11.350;2024-02-21T09:23:05;13.70;58.40
11140;DHT22;5624;49.388;11.350;2024-02-21T09:25:31;13.50;57.10
11140;DHT22;5624;49.388;11.350;2024-02-21T09:27:57;13.00;58.20
11140;DHT22;5624;49.388;11.350;2024-02-21T09:30:23;12.80;59.10
11140;DHT22;5624;49.388;11.350;2024-02-21T09:32:49;12.80;57.80
11140;DHT22;5624;49.388;11.350;2024-02-21T09:35:15;12.80;60.10
11140;DHT22;5624;49.388;11.350;2024-02-21T09:37:40;12.90;58.80
11140;DHT22;5624;49.388;11.350;2024-02-21T09:40:07;12.80;58.40
11140;DHT22;5624;49.388;11.350;2024-02-21T09:42:38;13.20;59.70
11140;DHT22;5624;49.388;11.350;2024-02-21T09:45:20;13.60;57.80
11140;DHT22;5624;49.388;11.350;2024-02-21T09:48:49;13.80;57.00
11140;DHT22;5624;49.388;11.350;2024-02-21T09:50:55;13.90;55.60
11140;DHT22;5624;49.388;11.350;2024-02-21T09:53:24;14.00;55.00
11140;DHT22;5624;49.388;11.350;2024-02-21T09:55:50;14.00;55.50
11140;DHT22;5624;49.388;11.350;2024-02-21T09:58:16;13.90;54.80
11140;DHT22;5624;49.388;11.350;2024-02-21T10:00:42;14.30;54.70
11140;DHT22;5624;49.388;11.350;2024-02-21T10:03:08;14.20;53.30
11140;DHT22;5624;49.388;11.350;2024-02-21T10:05:35;14.20;55.20
11140;DHT22;5624;49.388;11.350;2024-02-21T10:08:01;14.40;54.50
11140;DHT22;5624;49.388;11.350;2024-02-21T10:10:27;14.10;55.00
11140;DHT22;5624;49.388;11.350;2024-02-21T10:12:55;14.30;54.10
11140;DHT22;5624;49.388;11.350;2024-02-21T10:15:22;14.70;54.70
11140;DHT22;5624;49.388;11.350;2024-02-21T10:17:48;15.00;54.50
11140;DHT22;5624;49.388;11.350;2024-02-21T10:20:14;14.90;52.30
11140;DHT22;5624;49.388;11.350;2024-02-21T10:22:40;14.60;53.10
11140;DHT22;5624;49.388;11.350;2024-02-21T10:25:10;14.50;52.80
11140;DHT22;5624;49.388;11.350;2024-02-21T10:27:37;14.10;53.00
11140;DHT22;5624;49.388;11.350;2024-02-21T10:30:03;13.80;54.10
11140;DHT22;5624;49.388;11.350;2024-02-21T10:32:29;13.50;54.50
11140;DHT22;5624;49.388;11.350;2024-02-21T10:35:03;13.30;54.80
11140;DHT22;5624;49.388;11.350;2024-02-21T10:37:31;13.30;53.60
11140;DHT22;5624;49.388;11.350;2024-02-21T10:39:57;13.40;55.00
11140;DHT22;5624;49.388;11.350;2024-02-21T10:42:28;13.50;54.90
11140;DHT22;5624;49.388;11.350;2024-02-21T10:44:55;13.30;54.30
11140;DHT22;5624;49.388;11.350;2024-02-21T10:47:25;13.40;55.10
11140;DHT22;5624;49.388;11.350;2024-02-21T10:50:00;13.40;55.60
11140;DHT22;5624;49.388;11.350;2024-02-21T10:55:10;13.20;56.10
11140;DHT22;5624;49.388;11.350;2024-02-21T10:57:38;13.30;54.90
11140;DHT22;5624;49.388;11.350;2024-02-21T11:00:04;13.30;55.70
11140;DHT22;5624;49.388;11.350;2024-02-21T11:02:33;13.50;54.40
11140;DHT22;5624;49.388;11.350;2024-02-21T11:05:01;13.40;55.80
11140;DHT22;5624;49.388;11.350;2024-02-21T11:07:29;13.30;56.60
11140;DHT22;5624;49.388;11.350;2024-02-21T11:09:55;13.10;56.10
11140;DHT22;5624;49.388;11.350;2024-02-21T11:12:21;13.10;56.10
11140;DHT22;5624;49.388;11.350;2024-02-21T11:14:47;13.10;55.90
11140;DHT22;5624;49.388;11.350;2024-02-21T11:17:20;13.00;56.10
11140;DHT22;5624;49.388;11.350;2024-02-21T11:19:52;12.90;56.00
11140;DHT22;5624;49.388;11.350;2024-02-21T11:22:18;12.90;56.00
11140;DHT22;5624;49.388;11.350;2024-02-21T11:24:45;12.90;56.50
11140;DHT22;5624;49.388;11.350;2024-02-21T11:27:14;12.90;56.90
11140;DHT22;5624;49.388;11.350;2024-02-21T11:29:47;13.20;56.70
11140;DHT22;5624;49.388;11.350;2024-02-21T11:32:15;13.20;56.50
11140;DHT22;5624;49.388;11.350;2024-02-21T11:34:41;13.10;56.10
11140;DHT22;5624;49.388;11.350;2024-02-21T11:37:16;13.20;55.90
11140;DHT22;5624;49.388;11.350;2024-02-21T11:39:42;13.20;55.20
11140;DHT22;5624;49.388;11.350;2024-02-21T11:42:08;13.20;54.90
11140;DHT22;5624;49.388;11.350;2024-02-21T11:44:37;13.30;55.40
11140;DHT22;5624;49.388;11.350;2024-02-21T11:47:03;13.30;54.70
11140;DHT22;5624;49.388;11.350;2024-02-21T11:49:29;13.40;54.90
11140;DHT22;5624;49.388;11.350;2024-02-21T11:52:02;13.40;54.80
11140;DHT22;5624;49.388;11.350;2024-02-21T11:54:30;13.30;53.60
11140;DHT22;5624;49.388;11.350;2024-02-21T11:56:55;13.30;54.10
11140;DHT22;5624;49.388;11.350;2024-02-21T11:59:21;13.20;54.80
11140;DHT22;5624;49.388;11.350;2024-02-21T12:01:48;13.30;54.60
11140;DHT22;5624;49.388;11.350;2024-02-21T12:04:14;13.60;55.40
11140;DHT22;5624;49.388;11.350;2024-02-21T12:06:43;13.80;52.00
11140;DHT22;5624;49.388;11.350;2024-02-21T12:09:08;13.80;52.70
11140;DHT22;5624;49.388;11.350;2024-02-21T12:11:34;14.00;51.50
11140;DHT22;5624;49.388;11.350;2024-02-21T12:14:03;13.80;52.90
11140;DHT22;5624;49.388;11.350;2024-02-21T12:16:31;13.90;53.60
11140;DHT22;5624;49.388;11.350;2024-02-21T12:19:01;14.00;52.30
11140;DHT22;5624;49.388;11.350;2024-02-21T12:21:33;13.90;51.50
11140;DHT22;5624;49.388;11.350;2024-02-21T12:24:14;13.50;50.90
11140;DHT22;5624;49.388;11.350;2024-02-21T12:26:40;13.50;50.90
11140;DHT22;5624;49.388;11.350;2024-02-21T12:29:06;13.40;51.00
11140;DHT22;5624;49.388;11.350;2024-02-21T12:31:35;13.10;48.70
11140;DHT22;5624;49.388;11.350;2024-02-21T12:34:01;13.00;50.30
11140;DHT22;5624;49.388;11.350;2024-02-21T12:36:26;13.10;49.60
11140;DHT22;5624;49.388;11.350;2024-02-21T12:38:52;13.10;47.40
11140;DHT22;5624;49.388;11.350;2024-02-21T12:41:17;12.90;49.20
11140;DHT22;5624;49.388;11.350;2024-02-21T12:43:43;12.70;49.20
11140;DHT22;5624;49.388;11.350;2024-02-21T12:46:08;13.00;49.70
11140;DHT22;5624;49.388;11.350;2024-02-21T12:48:34;13.10;49.80
11140;DHT22;5624;49.388;11.350;2024-02-21T12:51:00;13.10;50.10
11140;DHT22;5624;49.388;11.350;2024-02-21T12:53:25;13.00;49.20
11140;DHT22;5624;49.388;11.350;2024-02-21T12:55:51;13.00;49.90
11140;DHT22;5624;49.388;11.350;2024-02-21T12:58:16;13.00;49.80
11140;DHT22;5624;49.388;11.350;2024-02-21T13:00:42;13.20;49.60
11140;DHT22;5624;49.388;11.350;2024-02-21T13:03:08;13.20;48.90
11140;DHT22;5624;49.388;11.350;2024-02-21T13:05:37;13.10;49.20
11140;DHT22;5624;49.388;11.350;2024-02-21T13:08:05;13.10;50.60
11140;DHT22;5624;49.388;11.350;2024-02-21T13:10:31;13.00;49.90
11140;DHT22;5624;49.388;11.350;2024-02-21T13:12:56;13.00;48.20
11140;DHT22;5624;49.388;11.350;2024-02-21T13:15:22;12.90;47.20
11140;DHT22;5624;49.388;11.350;2024-02-21T13:17:47;13.00;46.00
11140;DHT22;5624;49.388;11.350;2024-02-21T13:20:13;13.10;48.40
11140;DHT22;5624;49.388;11.350;2024-02-21T13:22:38;12.90;48.80
11140;DHT22;5624;49.388;11.350;2024-02-21T13:25:04;12.70;48.10
11140;DHT22;5624;49.388;11.350;2024-02-21T13:27:33;12.80;47.80
11140;DHT22;5624;49.388;11.350;2024-02-21T13:29:58;12.70;48.70
11140;DHT22;5624;49.388;11.350;2024-02-21T13:32:25;12.70;48.70
11140;DHT22;5624;49.388;11.350;2024-02-21T13:34:51;12.80;50.00
11140;DHT22;5624;49.388;11.350;2024-02-21T13:37:17;12.60;47.50
11140;DHT22;5624;49.388;11.350;2024-02-21T13:39:43;12.40;48.00
11140;DHT22;5624;49.388;11.350;2024-02-21T13:42:09;12.40;48.10
11140;DHT22;5624;49.388;11.350;2024-02-21T13:44:34;12.30;47.90
11140;DHT22;5624;49.388;11.350;2024-02-21T13:47:01;12.20;49.00
11140;DHT22;5624;49.388;11.350;2024-02-21T13:49:26;12.30;47.60
11140;DHT22;5624;49.388;11.350;2024-02-21T13:51:52;12.10;48.20
11140;DHT22;5624;49.388;11.350;2024-02-21T13:54:18;12.00;49.00
11140;DHT22;5624;49.388;11.350;2024-02-21T13:56:45;11.90;48.50
11140;DHT22;5624;49.388;11.350;2024-02-21T13:59:12;11.80;48.60
11140;DHT22;5624;49.388;11.350;2024-02-21T14:01:39;11.80;49.40
11140;DHT22;5624;49.388;11.350;2024-02-21T14:04:04;11.80;49.20
11140;DHT22;5624;49.388;11.350;2024-02-21T14:06:30;11.80;49.20
11140;DHT22;5624;49.388;11.350;2024-02-21T14:08:55;11.80;50.30
11140;DHT22;5624;49.388;11.350;2024-02-21T14:11:21;11.70;49.10
11140;DHT22;5624;49.388;11.350;2024-02-21T14:13:46;11.70;49.40
11140;DHT22;5624;49.388;11.350;2024-02-21T14:16:12;11.70;49.80
11140;DHT22;5624;49.388;11.350;2024-02-21T14:18:41;11.80;49.80
11140;DHT22;5624;49.388;11.350;2024-02-21T14:21:10;11.70;49.40
11140;DHT22;5624;49.388;11.350;2024-02-21T14:23:39;11.70;50.10
11140;DHT22;5624;49.388;11.350;2024-02-21T14:26:05;11.80;49.60
11140;DHT22;5624;49.388;11.350;2024-02-21T14:28:31;11.80;50.90
11140;DHT22;5624;49.388;11.350;2024-02-21T14:30:59;11.90;49.10
11140;DHT22;5624;49.388;11.350;2024-02-21T14:33:28;12.00;50.10
11140;DHT22;5624;49.388;11.350;2024-02-21T14:35:54;12.00;49.50
11140;DHT22;5624;49.388;11.350;2024-02-21T14:38:20;11.90;49.80
11140;DHT22;5624;49.388;11.350;2024-02-21T14:40:45;11.80;49.70
11140;DHT22;5624;49.388;11.350;2024-02-21T14:43:11;11.80;49.80
11140;DHT22;5624;49.388;11.350;2024-02-21T14:45:36;11.80;50.40
11140;DHT22;5624;49.388;11.350;2024-02-21T14:48:04;11.70;49.30
11140;DHT22;5624;49.388;11.350;2024-02-21T14:50:30;11.60;49.30
11140;DHT22;5624;49.388;11.350;2024-02-21T14:52:55;11.50;50.30
11140;DHT22;5624;49.388;11.350;2024-02-21T14:55:21;11.50;50.50
11140;DHT22;5624;49.388;11.350;2024-02-21T14:57:46;11.40;51.40
11140;DHT22;5624;49.388;11.350;2024-02-21T15:00:12;11.30;51.80
11140;DHT22;5624;49.388;11.350;2024-02-21T15:02:38;11.20;51.80
11140;DHT22;5624;49.388;11.350;2024-02-21T15:05:04;11.10;52.10
11140;DHT22;5624;49.388;11.350;2024-02-21T15:07:31;11.10;52.90
11140;DHT22;5624;49.388;11.350;2024-02-21T15:09:56;11.10;51.90
11140;DHT22;5624;49.388;11.350;2024-02-21T15:12:22;11.10;53.70
11140;DHT22;5624;49.388;11.350;2024-02-21T15:14:51;11.10;52.60
11140;DHT22;5624;49.388;11.350;2024-02-21T15:17:17;11.00;52.10
11140;DHT22;5624;49.388;11.350;2024-02-21T15:19:44;11.00;53.60
11140;DHT22;5624;49.388;11.350;2024-02-21T15:22:13;11.10;52.90
11140;DHT22;5624;49.388;11.350;2024-02-21T15:24:39;11.00;52.60
11140;DHT22;5624;49.388;11.350;2024-02-21T15:27:06;11.00;52.20
11140;DHT22;5624;49.388;11.350;2024-02-21T15:29:31;10.90;52.50
11140;DHT22;5624;49.388;11.350;2024-02-21T15:31:57;10.80;53.20
11140;DHT22;5624;49.388;11.350;2024-02-21T15:34:23;10.70;53.50
11140;DHT22;5624;49.388;11.350;2024-02-21T15:36:49;10.60;53.30
11140;DHT22;5624;49.388;11.350;2024-02-21T15:39:14;10.60;53.30